Time;durP1;ratioP1;P1;durP2;ratioP2;P2;SDS_P1;SDS_P2;PMS_P1;PMS_P2;Temp;Humidity;BMP_temperature;BMP_pressure;BME280_temperature;BME280_humidity;BME280_pressure;Samples;Min_cycle;Max_cycle;Signal;HPM_P1;HPM_P2
2020/12/14 00:02:58;;;;;;;;;;;4.40;99.90;;;3.40;91.91;95495.38;10426618;28;2039;-81
2020/12/14 00:08:00;;;;;;;;;;;6.00;99.90;;;3.51;91.27;95489.22;10429857;28;2031;-82
2020/12/14 00:13:02;;;;;;;;;;;5.40;99.90;;;3.48;91.07;95494.97;10431800;28;2058;-82
2020/12/14 00:18:04;;;;;;;;;;;4.60;99.90;;;3.43;90.73;95493.03;10425490;28;2035;-83
2020/12/14 00:23:06;;;;;;;;;;;4.60;99.90;;;3.42;90.71;95493.28;10417335;28;2121;-81
2020/12/14 00:28:07;;;;;;;;;;;4.60;99.90;;;3.39;90.04;95483.13;10420337;28;2122;-82
2020/12/14 00:33:09;;;;;;;;;;;4.50;99.90;;;3.47;89.72;95490.72;10421416;28;2018;-83
2020/12/14 00:38:11;;;;;;;;;;;4.60;99.90;;;3.48;89.93;95498.44;10436912;28;1964;-82
2020/12/14 00:43:12;;;;;;;;;;;4.60;99.90;;;3.59;89.11;95494.16;10438066;28;2023;-81
2020/12/14 00:48:14;;;;;;;;;;;5.80;99.90;;;3.51;88.18;95475.94;10433048;28;1864;-80
2020/12/14 00:53:15;;;;;;;;;;;5.80;99.90;;;3.48;88.59;95481.69;10427574;28;2039;-82
2020/12/14 00:58:17;;;;;;;;;;;4.60;99.90;;;3.48;89.04;95481.69;10422460;28;2039;-83
2020/12/14 01:03:19;;;;;;;;;;;5.40;99.90;;;3.45;88.60;95490.97;10427785;28;2692;-82
2020/12/14 01:08:21;;;;;;;;;;;4.60;99.90;;;3.46;88.16;95497.09;10425254;28;2157;-83
2020/12/14 01:13:22;;;;;;;;;;;5.20;99.90;;;3.49;88.83;95505.38;10434149;28;2035;-83
2020/12/14 01:18:24;;;;;;;;;;;4.60;99.90;;;3.55;88.62;95508.13;10429165;28;1972;-83
2020/12/14 01:23:26;;;;;;;;;;;5.50;99.90;;;3.56;88.06;95521.19;10413556;28;2103;-83
2020/12/14 01:28:28;;;;;;;;;;;5.60;99.90;;;3.57;88.26;95533.47;10424964;28;2117;-83
2020/12/14 01:33:30;;;;;;;;;;;6.00;99.90;;;3.55;88.09;95540.03;10428317;28;2150;-83
2020/12/14 01:38:35;;;;;;;;;;;4.70;99.90;;;3.63;87.96;95532.50;10427720;28;2019;-83
2020/12/14 01:43:37;;;;;;;;;;;6.70;99.90;;;3.63;87.55;95500.63;10409501;28;1992;-82
2020/12/14 01:48:39;;;;;;;;;;;4.80;99.90;;;3.55;87.37;95487.69;10429383;28;1932;-82
2020/12/14 01:53:40;;;;;;;;;;;4.70;99.90;;;3.54;88.19;95483.41;10418909;28;2059;-83
2020/12/14 01:58:42;;;;;;;;;;;4.70;99.90;;;3.51;88.60;95481.25;10422309;28;2407;-81
2020/12/14 02:03:43;;;;;;;;;;;4.60;99.90;;;3.45;88.25;95469.69;10421643;28;2027;-81
2020/12/14 02:08:45;;;;;;;;;;;4.90;99.90;;;3.44;88.53;95470.75;10425648;28;2019;-82
2020/12/14 02:13:47;;;;;;;;;;;5.70;99.90;;;3.44;88.77;95460.13;10442955;28;1995;-81
2020/12/14 02:18:48;;;;;;;;;;;5.70;99.90;;;3.46;88.34;95460.69;10451754;28;2031;-83
2020/12/14 02:23:50;;;;;;;;;;;4.60;99.90;;;3.15;89.09;95458.47;10441609;28;1960;-83
2020/12/14 02:28:53;;;;;;;;;;;4.90;99.90;;;2.93;89.43;95458.28;10438279;28;2212;-82
2020/12/14 02:33:54;;;;;;;;;;;5.20;99.90;;;2.81;90.33;95460.94;10453091;28;2003;-80
2020/12/14 02:38:56;;;;;;;;;;;4.40;99.90;;;2.56;90.25;95471.78;10466788;28;1771;-83
2020/12/14 02:43:58;;;;;;;;;;;6.10;99.90;;;2.34;91.85;95476.03;10453787;28;1938;-82
2020/12/14 02:48:59;;;;;;;;;;;3.70;99.90;;;2.25;92.40;95470.28;10441120;28;2051;-83
2020/12/14 02:54:01;;;;;;;;;;;3.50;99.90;;;2.13;92.32;95480.84;10424395;28;2068;-81
2020/12/14 02:59:03;;;;;;;;;;;4.20;99.90;;;2.12;92.96;95494.34;10430021;28;2026;-81
2020/12/14 03:04:04;;;;;;;;;;;3.30;99.90;;;2.10;93.07;95485.78;10442710;28;2316;-82
2020/12/14 03:09:06;;;;;;;;;;;5.00;99.90;;;2.01;92.57;95477.38;10453345;28;1933;-81
2020/12/14 03:14:08;;;;;;;;;;;4.30;99.90;;;1.84;92.13;95476.38;10464073;28;2032;-82
2020/12/14 03:19:09;;;;;;;;;;;4.60;99.90;;;1.72;92.70;95488.78;10465009;28;1794;-82
2020/12/14 03:24:12;;;;;;;;;;;4.00;99.90;;;1.70;92.84;95501.47;10465747;28;1883;-82
2020/12/14 03:29:14;;;;;;;;;;;2.90;99.90;;;1.63;92.60;95494.41;10435561;28;2170;-83
2020/12/14 03:34:15;;;;;;;;;;;2.90;99.90;;;1.51;93.00;95469.72;10429633;28;2054;-82
2020/12/14 03:39:17;;;;;;;;;;;2.70;99.90;;;1.45;93.16;95469.78;10428760;28;2066;-82
2020/12/14 03:44:19;;;;;;;;;;;2.60;99.90;;;1.38;93.21;95479.66;10432176;28;2081;-81
2020/12/14 03:49:20;;;;;;;;;;;2.60;99.90;;;1.25;93.13;95489.38;10449688;28;1865;-82
2020/12/14 03:54:22;;;;;;;;;;;2.50;99.90;;;1.23;93.74;95482.72;10417957;28;2036;-83
2020/12/14 03:59:24;;;;;;;;;;;2.50;99.90;;;1.13;93.11;95480.56;10423583;28;1988;-81
2020/12/14 04:04:26;;;;;;;;;;;2.30;99.90;;;1.08;93.49;95488.34;10434988;28;2126;-81
2020/12/14 04:09:27;;;;;;;;;;;2.30;99.90;;;1.13;93.71;95491.16;10445581;28;2097;-79
2020/12/14 04:14:29;;;;;;;;;;;2.30;99.90;;;1.05;93.26;95486.97;10444005;28;2095;-80
2020/12/14 04:19:31;;;;;;;;;;;2.30;99.90;;;1.02;93.42;95484.78;10449391;28;2090;-80
2020/12/14 04:24:32;;;;;;;;;;;2.30;99.90;;;0.89;93.46;95486.75;10439811;28;2056;-82
2020/12/14 04:29:34;;;;;;;;;;;2.20;99.90;;;0.84;93.64;95490.06;10426719;28;2101;-80
2020/12/14 04:34:36;;;;;;;;;;;3.30;99.90;;;0.73;93.97;95490.78;10433594;28;2141;-80
2020/12/14 04:39:37;;;;;;;;;;;2.00;99.90;;;0.66;93.76;95482.91;10437308;28;2132;-82
2020/12/14 04:44:39;;;;;;;;;;;1.90;99.90;;;0.60;93.94;95485.63;10447224;28;2118;-83
2020/12/14 04:49:41;;;;;;;;;;;1.90;99.90;;;0.59;94.07;95487.47;10443995;28;2081;-81
2020/12/14 04:54:42;;;;;;;;;;;1.80;99.90;;;0.59;93.85;95489.31;10469947;28;2030;-82
2020/12/14 04:59:44;;;;;;;;;;;1.80;99.90;;;0.56;93.91;95485.25;10445519;28;2024;-82
2020/12/14 05:04:46;;;;;;;;;;;1.80;99.90;;;0.60;93.51;95480.34;10451477;28;2059;-80
2020/12/14 05:09:47;;;;;;;;;;;1.80;99.90;;;0.49;93.93;95485.28;10433324;28;1916;-82
2020/12/14 05:14:51;;;;;;;;;;;1.80;99.90;;;0.48;93.73;95480.22;10428459;28;2129;-83
2020/12/14 05:19:53;;;;;;;;;;;3.50;99.90;;;0.42;93.90;95487.19;10430850;28;1945;-81
2020/12/14 05:24:54;;;;;;;;;;;3.40;99.90;;;0.42;93.75;95476.63;10420074;28;2107;-82
2020/12/14 05:29:56;;;;;;;;;;;1.60;99.90;;;0.42;93.78;95478.47;10427186;28;2045;-83
2020/12/14 05:34:58;;;;;;;;;;;1.60;99.90;;;0.39;93.98;95492.94;10427341;28;2047;-81
2020/12/14 05:40:00;;;;;;;;;;;1.60;99.90;;;0.34;93.37;95487.47;10418764;28;2105;-81
2020/12/14 05:45:01;;;;;;;;;;;1.60;99.90;;;0.24;93.68;95481.84;10430493;28;1961;-79
2020/12/14 05:50:03;;;;;;;;;;;1.50;99.90;;;0.25;93.58;95483.47;10430201;28;1896;-81
2020/12/14 05:55:05;;;;;;;;;;;1.50;99.90;;;0.29;93.55;95484.66;10435115;28;2036;-81
2020/12/14 06:00:10;;;;;;;;;;;2.30;99.90;;;0.25;93.65;95491.41;10417659;28;2143;-82
2020/12/14 06:05:12;;;;;;;;;;;1.50;99.90;;;0.26;93.50;95493.84;10412455;28;2015;-83
2020/12/14 06:10:13;;;;;;;;;;;1.50;99.90;;;0.16;93.51;95495.34;10427512;28;2068;-83
2020/12/14 06:15:18;;;;;;;;;;;1.40;99.90;;;0.11;93.54;95500.47;10428827;28;2004;-83
2020/12/14 06:20:20;;;;;;;;;;;1.40;99.90;;;0.19;93.66;95500.19;10433004;28;2004;-82
2020/12/14 06:25:22;;;;;;;;;;;1.30;99.90;;;0.10;93.64;95507.59;10428955;28;2060;-82
2020/12/14 06:30:24;;;;;;;;;;;2.20;99.90;;;0.07;93.73;95504.59;10439709;28;1949;-81
2020/12/14 06:35:25;;;;;;;;;;;1.30;99.90;;;0.02;93.68;95507.03;10429357;28;2138;-82
2020/12/14 06:40:27;;;;;;;;;;;1.30;99.90;;;0.01;93.96;95510.72;10428564;28;2446;-82
2020/12/14 06:45:29;;;;;;;;;;;1.20;99.90;;;-0.01;94.30;95501.16;10428797;28;1972;-83
2020/12/14 06:50:31;;;;;;;;;;;1.70;99.90;;;0.02;94.22;95494.63;10421715;28;2237;-80
2020/12/14 06:55:32;;;;;;;;;;;1.30;99.90;;;0.01;93.90;95497.50;10431064;28;2034;-83
2020/12/14 07:00:34;;;;;;;;;;;2.90;99.90;;;-0.02;94.26;95504.81;10424266;28;2122;-79
2020/12/14 07:05:36;;;;;;;;;;;2.70;99.90;;;0.09;93.80;95505.97;10417523;28;2309;-82
2020/12/14 07:10:38;;;;;;;;;;;3.00;99.90;;;0.06;93.35;95511.66;10427860;28;2075;-83
2020/12/14 07:15:40;;;;;;;;;;;1.30;99.90;;;0.07;93.95;95517.78;10431761;28;1903;-84
2020/12/14 07:20:42;;;;;;;;;;;1.90;99.90;;;0.07;93.55;95515.97;10427008;28;1977;-81
2020/12/14 07:25:43;;;;;;;;;;;1.30;99.90;;;0.17;93.52;95518.09;10424012;28;2009;-82
2020/12/14 07:30:45;;;;;;;;;;;3.00;99.90;;;0.14;93.50;95515.91;10433151;28;1804;-81
2020/12/14 07:35:47;;;;;;;;;;;1.40;99.90;;;0.31;93.40;95513.53;10439659;28;1966;-80
2020/12/14 07:40:49;;;;;;;;;;;1.40;99.90;;;0.33;93.59;95517.59;10437322;28;1931;-82
2020/12/14 07:45:53;;;;;;;;;;;1.50;99.90;;;0.43;93.29;95523.19;10430973;28;2044;-81
2020/12/14 07:50:54;;;;;;;;;;;1.60;99.90;;;0.51;92.32;95522.94;10427554;28;2043;-81
2020/12/14 07:55:56;;;;;;;;;;;1.70;99.90;;;0.61;91.97;95530.38;10437701;28;2048;-81
2020/12/14 08:00:58;;;;;;;;;;;1.70;99.90;;;0.69;92.02;95529.28;10432666;28;1932;-80
2020/12/14 08:06:00;;;;;;;;;;;1.80;99.90;;;0.76;91.54;95522.06;10423780;28;1976;-81
2020/12/14 08:11:01;;;;;;;;;;;1.90;99.90;;;0.81;91.47;95530.19;10436429;28;1896;-79
2020/12/14 08:16:03;;;;;;;;;;;1.90;99.90;;;1.00;90.85;95533.66;10428577;28;1940;-81
2020/12/14 08:21:05;;;;;;;;;;;2.10;99.90;;;1.08;90.55;95526.25;10432100;28;2110;-80
2020/12/14 08:26:11;;;;;;;;;;;3.60;99.90;;;1.17;90.02;95533.91;10426289;28;2561;-80
2020/12/14 08:31:13;;;;;;;;;;;2.30;99.90;;;1.21;89.54;95525.31;10424219;28;2030;-81
2020/12/14 08:36:15;;;;;;;;;;;2.40;99.90;;;1.29;89.09;95532.94;10454793;28;2006;-80
2020/12/14 08:41:17;;;;;;;;;;;2.40;99.90;;;1.28;89.43;95530.53;10441117;28;1965;-80
2020/12/14 08:46:18;;;;;;;;;;;2.40;99.90;;;1.32;88.83;95536.97;10434094;28;2000;-80
2020/12/14 08:51:20;;;;;;;;;;;2.40;99.90;;;1.39;88.65;95542.19;10427297;28;2086;-80
2020/12/14 08:56:22;;;;;;;;;;;2.50;99.90;;;1.45;88.05;95547.41;10426044;28;1599;-80
2020/12/14 09:01:23;;;;;;;;;;;2.60;99.90;;;1.46;89.22;95532.31;10441044;28;2046;-79
2020/12/14 09:06:25;;;;;;;;;;;2.60;99.90;;;1.59;87.66;95538.28;10447916;28;2005;-80
2020/12/14 09:11:28;;;;;;;;;;;2.70;99.90;;;1.70;87.91;95549.16;10436332;28;1794;-80
2020/12/14 09:16:34;;;;;;;;;;;2.80;99.90;;;1.75;87.47;95557.25;10425744;28;1997;-80
2020/12/14 09:21:36;;;;;;;;;;;2.80;99.90;;;1.88;86.92;95563.19;10434039;28;1915;-82
2020/12/14 09:26:38;;;;;;;;;;;2.90;99.90;;;2.05;84.63;95568.69;10440793;28;1974;-78
2020/12/14 09:31:40;;;;;;;;;;;3.20;99.90;;;2.05;85.42;95565.22;10462613;28;1824;-79
2020/12/14 09:36:42;;;;;;;;;;;4.80;99.90;;;2.21;84.21;95566.41;10446608;28;2079;-79
2020/12/14 09:41:44;;;;;;;;;;;3.60;99.90;;;2.39;83.75;95561.03;10438550;28;1652;-80
2020/12/14 09:46:46;;;;;;;;;;;3.40;99.90;;;2.45;83.65;95557.50;10454632;28;1972;-81
2020/12/14 09:51:48;;;;;;;;;;;3.50;99.90;;;2.65;81.91;95562.47;10440008;28;1797;-79
2020/12/14 09:56:49;;;;;;;;;;;3.60;99.90;;;2.75;81.19;95549.47;10431607;28;3185;-82
2020/12/14 10:01:51;;;;;;;;;;;3.80;99.90;;;2.81;81.32;95545.09;10445687;28;2044;-82
2020/12/14 10:06:54;;;;;;;;;;;4.60;99.90;;;2.99;80.88;95526.38;10436738;28;2271;-82
2020/12/14 10:11:55;;;;;;;;;;;4.00;99.90;;;3.05;79.91;95536.06;10423995;28;1945;-82
2020/12/14 10:16:57;;;;;;;;;;;4.10;99.90;;;3.12;79.59;95536.75;10419895;28;2310;-82
2020/12/14 10:21:59;;;;;;;;;;;4.20;99.90;;;3.23;79.53;95541.25;10422055;28;1829;-82
2020/12/14 10:27:00;;;;;;;;;;;4.30;99.90;;;3.38;77.31;95545.28;10419686;28;1954;-83
2020/12/14 10:32:02;;;;;;;;;;;4.40;99.90;;;3.48;77.40;95543.63;10430271;28;2310;-82
2020/12/14 10:37:04;;;;;;;;;;;4.50;99.90;;;3.64;75.58;95531.47;10422071;28;1956;-81
2020/12/14 10:42:06;;;;;;;;;;;5.50;99.90;;;3.70;76.21;95537.69;10423484;28;1967;-81
2020/12/14 10:47:07;;;;;;;;;;;4.80;99.90;;;3.91;74.76;95533.56;10437509;28;2046;-81
2020/12/14 10:52:11;;;;;;;;;;;4.80;99.90;;;3.96;75.03;95534.47;10430884;28;1981;-81
2020/12/14 10:57:13;;;;;;;;;;;5.00;99.90;;;4.09;74.46;95533.38;10420976;28;1837;-81
2020/12/14 11:02:14;;;;;;;;;;;5.70;99.90;;;4.15;75.26;95532.44;10428736;28;1842;-79
2020/12/14 11:07:16;;;;;;;;;;;5.20;99.90;;;4.23;76.33;95532.03;10429303;28;2286;-82
2020/12/14 11:17:34;;;;;;;;;;;5.40;99.90;;;4.41;75.90;95539.00;10422050;28;1940;-79
2020/12/14 11:22:36;;;;;;;;;;;5.50;99.90;;;4.48;75.42;95533.50;10434993;28;2058;-79
2020/12/14 11:27:38;;;;;;;;;;;7.30;99.90;;;4.52;76.00;95524.00;10454120;28;1886;-78
2020/12/14 11:32:39;;;;;;;;;;;6.30;99.90;;;4.68;75.14;95517.06;10446725;28;1786;-80
2020/12/14 11:37:41;;;;;;;;;;;5.70;99.90;;;4.86;74.95;95498.97;10453915;28;1627;-80
2020/12/14 11:42:43;;;;;;;;;;;5.90;99.90;;;5.01;74.82;95495.72;10434464;28;1932;-81
2020/12/14 11:47:44;;;;;;;;;;;6.00;99.90;;;5.20;74.63;95492.78;10430711;28;1963;-80
2020/12/14 11:52:47;;;;;;;;;;;6.20;99.90;;;5.23;73.94;95485.09;10423965;28;1976;-79
2020/12/14 11:57:49;;;;;;;;;;;7.30;99.90;;;5.21;73.79;95487.19;10447190;28;1977;-79
2020/12/14 12:02:50;;;;;;;;;;;6.30;99.90;;;5.09;74.98;95482.00;10417215;28;1849;-81
2020/12/14 12:07:52;;;;;;;;;;;6.20;99.90;;;4.99;74.45;95484.50;10432364;28;2159;-81
2020/12/14 12:12:54;;;;;;;;;;;6.70;99.90;;;5.03;75.77;95482.16;10416320;28;1768;-80
2020/12/14 12:17:55;;;;;;;;;;;6.10;99.90;;;4.98;75.67;95479.44;10426967;28;1995;-82
2020/12/14 12:22:57;;;;;;;;;;;6.00;99.90;;;4.93;76.67;95493.47;10424307;28;2069;-82
2020/12/14 12:27:59;;;;;;;;;;;6.00;99.90;;;4.97;75.74;95483.16;10416375;28;1965;-83
2020/12/14 12:33:02;;;;;;;;;;;6.80;99.90;;;4.98;76.04;95490.09;10409389;28;1921;-80
2020/12/14 12:38:04;;;;;;;;;;;7.00;99.90;;;5.09;76.01;95483.81;10421800;28;1901;-79
2020/12/14 12:43:06;;;;;;;;;;;6.90;99.90;;;5.00;76.59;95485.31;10428358;28;1785;-81
2020/12/14 12:48:08;;;;;;;;;;;6.10;99.90;;;5.02;76.07;95481.34;10410363;28;1975;-81
2020/12/14 12:53:10;;;;;;;;;;;7.00;99.90;;;5.04;76.20;95478.44;10409682;28;1951;-80
2020/12/14 12:58:11;;;;;;;;;;;6.70;99.90;;;5.18;76.01;95484.22;10422221;28;2030;-81
2020/12/14 13:03:14;;;;;;;;;;;6.20;99.90;;;5.23;75.70;95493.09;10410983;28;1985;-83
2020/12/14 13:08:15;;;;;;;;;;;6.30;99.90;;;5.13;75.67;95482.28;10408962;28;2187;-82
2020/12/14 13:13:17;;;;;;;;;;;7.20;99.90;;;5.15;75.28;95474.84;10420447;28;1982;-83
2020/12/14 13:18:19;;;;;;;;;;;6.20;99.90;;;5.14;75.70;95473.25;10401422;28;1738;-82
2020/12/14 13:23:21;;;;;;;;;;;6.20;99.90;;;5.20;75.60;95476.78;10421373;28;2053;-79
2020/12/14 13:28:24;;;;;;;;;;;6.30;99.90;;;5.18;76.26;95470.91;10421166;28;1993;-80
2020/12/14 13:33:34;;;;;;;;;;;6.30;99.90;;;5.27;75.57;95470.22;10402905;28;2040;-82
2020/12/14 13:38:44;;;;;;;;;;;6.80;99.90;;;5.38;75.54;95463.97;10426606;28;1877;-81
2020/12/14 13:43:54;;;;;;;;;;;7.50;99.90;;;5.44;75.67;95462.16;10429700;28;1911;-80
2020/12/14 13:48:56;;;;;;;;;;;7.90;99.90;;;5.52;74.96;95474.25;10415861;28;1850;-83
2020/12/14 13:53:58;;;;;;;;;;;6.60;99.90;;;6.26;73.36;95469.19;10434838;28;1731;-82
2020/12/14 13:59:00;;;;;;;;;;;7.10;99.90;;;7.14;72.88;95479.44;10420504;28;1669;-80
2020/12/14 14:04:02;;;;;;;;;;;7.70;99.90;;;7.05;68.89;95469.22;10415635;28;1906;-81
2020/12/14 14:09:10;;;;;;;;;;;9.50;99.90;;;6.33;71.70;95485.00;10432108;28;1967;-81
2020/12/14 14:14:23;;;;;;;;;;;8.90;99.90;;;5.85;73.24;95484.78;10423718;28;1862;-81
2020/12/14 14:24:54;;;;;;;;;;;6.80;99.90;;;5.36;78.72;95476.75;10442556;28;1929;-81
2020/12/14 14:29:56;;;;;;;;;;;7.90;99.90;;;5.17;81.59;95480.75;10425856;28;2201;-82
2020/12/14 14:35:03;;;;;;;;;;;6.40;99.90;;;4.91;83.54;95478.81;10440439;28;1826;-78
2020/12/14 14:40:06;;;;;;;;;;;7.40;99.90;;;4.70;84.86;95483.81;10428005;28;1980;-81
2020/12/14 14:45:08;;;;;;;;;;;5.90;99.90;;;4.44;86.26;95479.16;10425390;28;2402;-82
2020/12/14 14:50:10;;;;;;;;;;;5.70;99.90;;;4.20;87.25;95492.63;10441073;28;1741;-78
2020/12/14 14:55:12;;;;;;;;;;;5.50;99.90;;;3.95;88.36;95497.50;10443707;28;2031;-78
2020/12/14 15:00:13;;;;;;;;;;;5.30;99.90;;;3.78;88.72;95505.41;10453450;28;1617;-79
2020/12/14 15:05:24;;;;;;;;;;;5.10;99.90;;;3.48;89.43;95503.75;10456837;28;1951;-81
2020/12/14 15:10:26;;;;;;;;;;;4.80;99.90;;;3.32;90.33;95487.78;10422822;28;1854;-80
2020/12/14 15:15:29;;;;;;;;;;;4.60;99.90;;;3.14;91.16;95486.06;10429058;28;1870;-79
2020/12/14 15:20:30;;;;;;;;;;;4.40;99.90;;;2.92;91.07;95480.53;10431433;28;2197;-80
2020/12/14 15:25:32;;;;;;;;;;;4.20;99.90;;;2.76;91.90;95473.28;10429610;28;2001;-80
2020/12/14 15:30:34;;;;;;;;;;;4.00;99.90;;;2.53;92.51;95482.84;10460794;28;1890;-79
2020/12/14 15:35:36;;;;;;;;;;;5.70;99.90;;;2.30;93.44;95490.81;10470086;28;1652;-80
2020/12/14 15:40:37;;;;;;;;;;;3.60;99.90;;;2.10;93.55;95497.22;10462001;28;1359;-81
2020/12/14 15:45:39;;;;;;;;;;;3.30;99.90;;;2.01;94.20;95508.38;10427422;28;1999;-81
2020/12/14 15:50:43;;;;;;;;;;;3.20;99.90;;;1.97;94.49;95518.59;10406063;28;1828;-80
2020/12/14 15:55:45;;;;;;;;;;;3.20;99.90;;;1.99;94.28;95527.16;10441005;28;2015;-81
2020/12/14 16:00:47;;;;;;;;;;;4.40;99.90;;;1.96;94.79;95522.28;10443814;28;1865;-81
2020/12/14 16:05:48;;;;;;;;;;;3.10;99.90;;;1.91;94.47;95519.53;10409940;28;2175;-80
2020/12/14 16:10:50;;;;;;;;;;;3.10;99.90;;;1.88;94.79;95522.63;10418767;28;1913;-80
2020/12/14 16:15:52;;;;;;;;;;;3.10;99.90;;;1.89;94.44;95519.75;10417262;28;1951;-80
2020/12/14 16:20:54;;;;;;;;;;;3.00;99.90;;;1.89;94.47;95517.09;10411032;28;1967;-81
2020/12/14 16:25:56;;;;;;;;;;;3.10;99.90;;;1.92;94.97;95505.25;10417107;28;1975;-80
2020/12/14 16:30:57;;;;;;;;;;;3.10;99.90;;;1.92;94.84;95510.53;10422419;28;2018;-80
2020/12/14 16:35:59;;;;;;;;;;;3.00;99.90;;;1.96;94.49;95505.59;10428459;28;2084;-80
2020/12/14 16:41:01;;;;;;;;;;;3.10;99.90;;;2.07;94.40;95507.47;10414587;28;1320;-80
2020/12/14 16:46:03;;;;;;;;;;;3.90;99.90;;;2.13;94.21;95502.06;10417987;28;1906;-81
2020/12/14 16:51:05;;;;;;;;;;;3.20;99.90;;;2.31;93.66;95506.50;10409907;28;1491;-81
2020/12/14 16:56:07;;;;;;;;;;;4.90;99.90;;;2.39;92.48;95508.81;10413195;28;1523;-81
2020/12/14 17:01:08;;;;;;;;;;;3.40;99.90;;;2.47;92.38;95501.53;10424974;28;1497;-79
2020/12/14 17:06:10;;;;;;;;;;;4.40;99.90;;;2.58;90.91;95498.91;10419757;28;1914;-81
2020/12/14 17:11:12;;;;;;;;;;;3.60;99.90;;;2.65;90.22;95499.59;10429868;28;1611;-82
2020/12/14 17:16:14;;;;;;;;;;;3.70;99.90;;;2.75;88.97;95493.72;10419890;28;1510;-81
2020/12/14 17:21:16;;;;;;;;;;;3.80;99.90;;;2.87;86.90;95485.75;10410206;28;1533;-81
2020/12/14 17:26:18;;;;;;;;;;;3.90;99.90;;;2.88;86.75;95487.38;10427761;28;2001;-81
2020/12/14 17:31:20;;;;;;;;;;;4.00;99.90;;;2.84;86.26;95481.69;10424067;28;1404;-82
2020/12/14 17:36:22;;;;;;;;;;;4.00;99.90;;;2.84;86.57;95465.78;10407554;28;1646;-82
2020/12/14 17:41:24;;;;;;;;;;;4.00;99.90;;;2.86;86.17;95445.13;10440439;28;1400;-80
2020/12/14 17:46:26;;;;;;;;;;;4.00;99.90;;;2.82;86.14;95445.81;10445556;28;1977;-81
2020/12/14 17:51:27;;;;;;;;;;;3.90;99.90;;;2.65;85.66;95454.47;10442521;28;1644;-82
2020/12/14 17:56:29;;;;;;;;;;;3.90;99.90;;;2.59;85.70;95468.66;10440320;28;1151;-82
2020/12/14 18:01:31;;;;;;;;;;;3.80;99.90;;;2.54;85.42;95454.47;10437387;28;1497;-81
2020/12/14 18:06:33;;;;;;;;;;;3.70;99.90;;;2.47;85.77;95440.50;10450496;28;1883;-81
2020/12/14 18:11:35;;;;;;;;;;;5.30;99.90;;;2.46;85.77;95452.16;10457198;28;1734;-80
2020/12/14 18:16:36;;;;;;;;;;;3.60;99.90;;;2.46;85.34;95446.88;10452714;28;1343;-79
2020/12/14 18:21:38;;;;;;;;;;;3.60;99.90;;;2.45;85.51;95451.38;10439229;28;1472;-81
2020/12/14 18:26:40;;;;;;;;;;;3.60;99.90;;;2.53;85.28;95444.91;10448876;28;1995;-80
2020/12/14 18:31:42;;;;;;;;;;;3.60;99.90;;;2.42;86.03;95447.34;10417005;28;1592;-80
2020/12/14 21:27:54;;;;;;;;;;;2.40;99.90;;;1.34;92.33;95360.16;10425594;28;1991;-85
2020/12/14 21:32:57;;;;;;;;;;;2.50;99.90;;;1.32;91.60;95364.84;10426657;28;1785;-85
2020/12/14 21:37:59;;;;;;;;;;;3.10;99.90;;;1.28;91.20;95366.34;10434328;28;1281;-84
2020/12/14 21:43:00;;;;;;;;;;;2.50;99.90;;;1.28;91.74;95361.84;10435342;28;1740;-84
2020/12/14 21:48:03;;;;;;;;;;;2.40;99.90;;;1.29;91.53;95354.72;10424227;28;1971;-83
2020/12/14 21:53:05;;;;;;;;;;;2.40;99.90;;;1.12;92.40;95354.53;10415963;28;1995;-84
2020/12/14 21:58:07;;;;;;;;;;;2.30;99.90;;;1.02;92.18;95364.88;10429177;28;2258;-85
2020/12/14 22:03:09;;;;;;;;;;;2.20;99.90;;;0.98;92.62;95364.50;10424358;28;1655;-86
2020/12/14 22:08:11;;;;;;;;;;;2.20;99.90;;;0.93;93.51;95345.81;10416454;28;2016;-86
2020/12/14 22:13:13;;;;;;;;;;;4.00;99.90;;;0.87;93.70;95349.38;10412875;28;1826;-87
2020/12/14 22:18:15;;;;;;;;;;;2.00;99.90;;;0.85;93.36;95356.72;10429820;28;1573;-86
2020/12/14 22:23:17;;;;;;;;;;;2.00;99.90;;;0.88;93.60;95366.84;10427950;28;1651;-87
2020/12/14 22:28:18;;;;;;;;;;;2.00;99.90;;;0.92;93.37;95361.94;10417473;28;1978;-86
2020/12/14 22:33:20;;;;;;;;;;;2.80;99.90;;;0.88;93.28;95371.34;10443537;28;2012;-84
2020/12/14 22:38:22;;;;;;;;;;;2.00;99.90;;;0.92;93.24;95369.88;10459403;28;1811;-86
2020/12/14 22:43:24;;;;;;;;;;;2.00;99.90;;;0.84;93.46;95372.84;10429048;28;1972;-87
2020/12/14 22:48:26;;;;;;;;;;;2.80;99.90;;;0.89;93.53;95384.38;10421048;28;2027;-86
2020/12/14 22:53:29;;;;;;;;;;;1.90;99.90;;;0.97;93.21;95389.34;10425794;28;1470;-86
2020/12/14 22:58:31;;;;;;;;;;;2.70;99.90;;;1.00;93.03;95391.53;10417492;28;1939;-86
2020/12/14 23:03:33;;;;;;;;;;;3.10;99.90;;;0.95;93.30;95388.75;10427020;28;1886;-86
2020/12/14 23:08:35;;;;;;;;;;;2.20;99.90;;;0.78;93.39;95385.09;10416832;28;1995;-87
2020/12/14 23:13:37;;;;;;;;;;;3.10;99.90;;;0.85;93.66;95391.13;10428804;28;2167;-85
2020/12/14 23:18:39;;;;;;;;;;;1.90;99.90;;;0.91;93.77;95400.03;10426953;28;1714;-86
2020/12/14 23:23:41;;;;;;;;;;;2.00;99.90;;;1.04;93.49;95403.31;10412389;28;2018;-87
2020/12/14 23:28:43;;;;;;;;;;;3.10;99.90;;;1.20;93.00;95395.75;10415341;28;2002;-88
2020/12/14 23:33:45;;;;;;;;;;;2.20;99.90;;;1.10;93.19;95390.22;10428732;28;1726;-87
2020/12/14 23:38:47;;;;;;;;;;;2.30;99.90;;;1.22;92.95;95378.63;10419425;28;1881;-87
2020/12/14 23:43:49;;;;;;;;;;;3.20;99.90;;;1.13;92.78;95363.28;10436230;28;1811;-86
2020/12/14 23:48:50;;;;;;;;;;;4.20;99.90;;;1.03;93.67;95375.22;10416165;28;1956;-85
2020/12/14 23:53:52;;;;;;;;;;;3.80;99.90;;;1.12;93.53;95388.16;10430172;28;1961;-88
2020/12/14 23:58:54;;;;;;;;;;;2.20;99.90;;;0.92;94.56;95389.19;10423512;28;1676;-85
